Time;durP1;ratioP1;P1;durP2;ratioP2;P2;SDS_P1;SDS_P2;PMS_P1;PMS_P2;Temp;Humidity;BMP_temperature;BMP_pressure;BME280_temperature;BME280_humidity;BME280_pressure;Samples;Min_cycle;Max_cycle;Signal;HPM_P1;HPM_P2
2022/09/02 00:01:40;;;;;;;1.02;1.02;;;19.20;99.90;;;;;;5107125;28;20197;-78
2022/09/02 00:04:12;;;;;;;1.85;1.30;;;19.30;99.90;;;;;;5094207;28;20219;-77
2022/09/02 00:06:41;;;;;;;1.45;1.35;;;19.20;99.90;;;;;;5089607;28;20240;-78
2022/09/02 00:09:11;;;;;;;1.50;1.40;;;19.20;99.90;;;;;;5081179;28;20202;-78
2022/09/02 00:11:42;;;;;;;1.70;1.50;;;19.00;99.90;;;;;;5091297;28;20201;-77
2022/09/02 00:14:56;;;;;;;1.27;1.20;;;19.00;99.90;;;;;;5095401;28;20240;-77
2022/09/02 00:24:00;;;;;;;1.48;1.38;;;19.00;99.90;;;;;;5084607;28;20198;-77
2022/09/02 00:26:43;;;;;;;1.15;1.05;;;19.00;99.90;;;;;;5088660;28;20224;-77
2022/09/02 00:29:20;;;;;;;1.40;1.30;;;19.00;99.90;;;;;;5073909;28;20198;-77
2022/09/02 00:35:06;;;;;;;1.17;1.10;;;18.90;99.90;;;;;;5076347;28;20222;-78
2022/09/02 00:41:10;;;;;;;1.27;1.17;;;18.90;99.90;;;;;;5083465;27;20214;-77
2022/09/02 00:46:37;;;;;;;2.03;1.58;;;18.90;99.90;;;;;;5086414;28;20217;-77
2022/09/02 00:49:08;;;;;;;3.53;1.48;;;18.80;99.90;;;;;;5093487;28;20210;-77
2022/09/02 00:51:42;;;;;;;1.50;1.40;;;18.70;99.90;;;;;;5085869;28;20233;-77
2022/09/02 00:54:10;;;;;;;1.48;1.38;;;18.80;99.90;;;;;;5089245;28;20233;-77
2022/09/02 00:56:39;;;;;;;1.40;1.30;;;18.70;99.90;;;;;;5090132;28;20185;-77
2022/09/02 00:59:13;;;;;;;1.80;1.40;;;18.70;99.90;;;;;;5076516;28;20361;-77
2022/09/02 01:01:40;;;;;;;1.30;1.20;;;18.70;99.90;;;;;;5085762;28;20289;-78
2022/09/02 01:04:08;;;;;;;1.73;1.15;;;18.70;99.90;;;;;;5090887;28;20210;-77
2022/09/02 01:06:35;;;;;;;1.40;1.30;;;18.70;99.90;;;;;;5093797;28;20205;-78
2022/09/02 01:09:07;;;;;;;1.95;1.30;;;18.80;99.90;;;;;;5097283;28;20197;-78
2022/09/02 01:11:40;;;;;;;1.35;1.25;;;18.90;99.90;;;;;;5091125;28;20221;-76
2022/09/02 01:14:11;;;;;;;1.25;1.13;;;19.00;99.90;;;;;;5086745;28;20912;-77
2022/09/02 01:16:42;;;;;;;1.20;1.20;;;18.90;99.90;;;;;;5082487;28;20293;-77
2022/09/02 01:19:17;;;;;;;1.17;1.17;;;18.90;99.90;;;;;;5079145;28;20247;-77
2022/09/02 01:21:48;;;;;;;1.27;1.00;;;19.00;99.90;;;;;;5088613;28;20280;-76
2022/09/02 01:24:17;;;;;;;1.35;1.23;;;19.00;99.90;;;;;;5089139;28;20714;-76
2022/09/02 01:26:44;;;;;;;1.40;1.30;;;19.10;99.90;;;;;;5092117;28;20196;-76
2022/09/02 01:29:12;;;;;;;2.05;1.20;;;19.00;99.90;;;;;;5087791;28;20220;-77
2022/09/02 01:31:39;;;;;;;1.52;1.20;;;19.00;99.90;;;;;;5087246;28;20256;-76
2022/09/02 01:34:06;;;;;;;1.13;1.13;;;18.90;99.90;;;;;;5094603;28;20224;-77
2022/09/02 01:36:37;;;;;;;1.50;1.40;;;18.90;99.90;;;;;;5086205;28;20222;-77
2022/09/02 01:39:05;;;;;;;1.00;1.00;;;18.90;99.90;;;;;;5087335;28;20205;-76
2022/09/02 01:41:32;;;;;;;0.95;0.95;;;18.90;99.90;;;;;;5094793;28;20213;-76
2022/09/02 01:43:59;;;;;;;1.00;1.00;;;18.90;99.90;;;;;;5093200;28;20221;-76
2022/09/02 01:46:27;;;;;;;1.02;1.02;;;18.90;99.90;;;;;;5093005;28;20213;-77
2022/09/02 01:48:54;;;;;;;1.00;1.00;;;18.90;99.90;;;;;;5086838;28;20233;-76
2022/09/02 01:51:21;;;;;;;1.13;1.13;;;18.90;99.90;;;;;;5086824;28;20213;-76
2022/09/02 01:53:49;;;;;;;1.40;1.23;;;18.90;99.90;;;;;;5091095;28;20193;-76
2022/09/02 01:56:17;;;;;;;1.50;1.30;;;18.90;99.90;;;;;;5090917;28;20667;-77
2022/09/02 01:58:44;;;;;;;1.30;1.20;;;18.90;99.90;;;;;;5079621;28;20660;-75
2022/09/02 02:01:11;;;;;;;1.08;1.05;;;18.90;99.90;;;;;;5090467;28;20221;-77
2022/09/02 02:03:39;;;;;;;1.10;1.10;;;18.90;99.90;;;;;;5089908;28;20652;-76
2022/09/02 02:06:10;;;;;;;1.17;1.10;;;19.00;99.90;;;;;;5094141;28;20719;-76
2022/09/02 02:08:37;;;;;;;1.10;1.10;;;19.00;99.90;;;;;;5092263;28;20218;-76
2022/09/02 02:11:05;;;;;;;1.58;1.48;;;19.00;99.90;;;;;;5085428;28;20229;-77
2022/09/02 02:13:33;;;;;;;1.10;1.10;;;19.00;99.90;;;;;;5081624;28;20198;-76
2022/09/02 02:16:00;;;;;;;1.23;1.13;;;19.00;99.90;;;;;;5082630;28;20218;-76
2022/09/02 02:18:28;;;;;;;0.80;0.80;;;19.00;99.90;;;;;;5082681;28;20196;-77
2022/09/02 02:20:55;;;;;;;0.80;0.80;;;19.10;99.90;;;;;;5092889;28;20217;-76
2022/09/02 02:23:23;;;;;;;0.90;0.90;;;19.10;99.90;;;;;;5093778;28;20197;-76
2022/09/02 02:25:50;;;;;;;1.95;1.13;;;19.10;99.90;;;;;;5093508;28;20216;-77
2022/09/02 02:28:17;;;;;;;1.27;1.10;;;19.10;99.90;;;;;;5091578;28;20602;-77
2022/09/02 02:30:46;;;;;;;1.30;1.30;;;19.00;99.90;;;;;;5085560;28;20210;-77
2022/09/02 02:33:13;;;;;;;1.17;1.17;;;19.00;99.90;;;;;;5091367;28;20292;-77
2022/09/02 02:35:41;;;;;;;1.48;1.38;;;19.00;99.90;;;;;;5098382;28;20220;-78
2022/09/02 02:38:09;;;;;;;1.10;1.10;;;19.00;99.90;;;;;;5083846;28;20194;-76
2022/09/02 02:40:37;;;;;;;1.35;1.30;;;19.00;99.90;;;;;;5092003;28;20563;-77
2022/09/02 02:43:04;;;;;;;1.38;1.27;;;19.00;99.90;;;;;;5088009;28;20212;-79
2022/09/02 02:45:31;;;;;;;1.25;1.20;;;19.00;99.90;;;;;;5085457;28;20649;-78
2022/09/02 02:48:00;;;;;;;1.23;1.10;;;19.00;99.90;;;;;;5079812;28;20200;-79
2022/09/02 02:50:27;;;;;;;0.90;0.90;;;19.00;99.90;;;;;;5090817;28;20212;-78
2022/09/02 02:52:55;;;;;;;1.00;1.00;;;19.00;99.90;;;;;;5086547;28;20599;-78
2022/09/02 02:55:23;;;;;;;1.00;1.00;;;18.90;99.90;;;;;;5086999;28;20220;-77
2022/09/02 02:57:50;;;;;;;1.00;1.00;;;18.90;99.90;;;;;;5101537;28;20204;-78
2022/09/02 03:00:21;;;;;;;1.48;1.38;;;18.80;99.90;;;;;;5092502;28;20221;-76
2022/09/02 03:02:48;;;;;;;1.00;1.00;;;18.80;99.90;;;;;;5094522;28;20198;-78
2022/09/02 03:05:17;;;;;;;1.48;1.30;;;18.80;99.90;;;;;;5091003;28;20218;-78
2022/09/02 03:07:44;;;;;;;1.40;1.30;;;18.80;99.90;;;;;;5091631;28;20244;-77
2022/09/02 03:10:13;;;;;;;1.42;1.33;;;18.60;99.90;;;;;;5091506;28;20230;-77
2022/09/02 03:12:40;;;;;;;1.50;1.40;;;18.60;99.90;;;;;;5098969;28;20205;-78
2022/09/02 03:15:10;;;;;;;2.15;1.30;;;18.60;99.90;;;;;;5086976;28;20225;-78
2022/09/02 03:17:37;;;;;;;1.35;1.30;;;18.50;99.90;;;;;;5094922;28;20193;-77
2022/09/02 03:20:06;;;;;;;1.50;1.40;;;18.60;99.90;;;;;;5090985;28;20280;-78
2022/09/02 03:22:37;;;;;;;1.45;1.40;;;18.60;99.90;;;;;;5094111;28;20237;-77
2022/09/02 03:25:05;;;;;;;1.45;1.38;;;18.70;99.90;;;;;;5093499;28;20225;-78
2022/09/02 03:27:33;;;;;;;1.02;1.02;;;18.60;99.90;;;;;;5092918;28;20200;-78
2022/09/02 03:30:00;;;;;;;1.33;1.33;;;18.60;99.90;;;;;;5083552;27;20707;-79
2022/09/02 03:32:28;;;;;;;1.17;1.17;;;18.60;99.90;;;;;;5081541;28;20193;-78
2022/09/02 03:34:55;;;;;;;1.25;1.15;;;18.70;99.90;;;;;;5093018;28;20602;-78
2022/09/02 03:37:22;;;;;;;0.90;0.90;;;18.70;99.90;;;;;;5096351;28;20226;-78
2022/09/02 03:39:50;;;;;;;1.35;1.25;;;18.70;99.90;;;;;;5087547;28;20220;-77
2022/09/02 03:42:17;;;;;;;1.23;1.20;;;18.70;99.90;;;;;;5087101;28;20692;-77
2022/09/02 03:44:44;;;;;;;1.23;1.20;;;18.70;99.90;;;;;;5084520;28;20652;-77
2022/09/02 03:47:13;;;;;;;1.20;1.20;;;18.60;99.90;;;;;;5088040;28;20190;-78
2022/09/02 03:49:40;;;;;;;1.40;1.30;;;18.60;99.90;;;;;;5092352;28;20778;-78
2022/09/02 03:52:07;;;;;;;1.60;1.50;;;18.50;99.90;;;;;;5086325;28;21094;-78
2022/09/02 03:54:34;;;;;;;1.17;1.17;;;18.50;99.90;;;;;;5091982;28;20229;-79
2022/09/02 03:57:03;;;;;;;1.40;1.30;;;18.50;99.90;;;;;;5089415;28;20238;-78
2022/09/02 03:59:30;;;;;;;1.52;1.42;;;18.50;99.90;;;;;;5077904;28;20217;-78
2022/09/02 04:01:57;;;;;;;1.35;1.30;;;18.60;99.90;;;;;;5082547;28;20200;-78
2022/09/02 04:04:24;;;;;;;1.20;1.20;;;18.60;99.90;;;;;;5092228;28;20213;-77
2022/09/02 04:06:51;;;;;;;1.60;1.20;;;18.60;99.90;;;;;;5088667;28;20622;-78
2022/09/02 04:09:18;;;;;;;1.20;1.20;;;18.60;99.90;;;;;;5088273;28;20210;-77
2022/09/02 04:11:46;;;;;;;1.10;1.10;;;18.60;99.90;;;;;;5087234;28;20198;-77
2022/09/02 04:14:15;;;;;;;1.00;1.00;;;18.60;99.90;;;;;;5087585;28;20267;-77
2022/09/02 04:16:42;;;;;;;1.25;1.15;;;18.50;99.90;;;;;;5090835;28;20253;-77
2022/09/02 04:19:09;;;;;;;1.23;1.23;;;18.60;99.90;;;;;;5091978;28;20196;-78
2022/09/02 04:21:38;;;;;;;1.02;1.02;;;18.60;99.90;;;;;;5084067;28;20203;-78
2022/09/02 04:24:08;;;;;;;1.20;1.20;;;18.60;99.90;;;;;;5083757;28;20221;-78
2022/09/02 04:26:35;;;;;;;1.38;1.27;;;18.60;99.90;;;;;;5092311;28;20279;-78
2022/09/02 04:29:02;;;;;;;1.20;1.20;;;18.60;99.90;;;;;;5089869;28;20197;-78
2022/09/02 04:31:31;;;;;;;1.33;1.25;;;18.60;99.90;;;;;;5088539;28;20212;-78
2022/09/02 04:33:59;;;;;;;1.40;1.30;;;18.60;99.90;;;;;;5092165;27;20656;-78
2022/09/02 04:36:27;;;;;;;1.50;1.40;;;18.50;99.90;;;;;;5084639;28;20222;-78
2022/09/02 04:38:54;;;;;;;1.95;1.13;;;18.50;99.90;;;;;;5089857;28;20198;-78
2022/09/02 04:41:23;;;;;;;1.30;1.20;;;18.60;99.90;;;;;;5087283;28;20228;-76
2022/09/02 04:43:51;;;;;;;1.23;1.23;;;18.60;99.90;;;;;;5079572;28;20197;-78
2022/09/02 04:46:19;;;;;;;1.23;1.10;;;18.60;99.90;;;;;;5090743;28;20228;-78
2022/09/02 04:48:48;;;;;;;1.50;1.40;;;18.60;99.90;;;;;;5093876;28;20258;-79
2022/09/02 04:51:18;;;;;;;2.15;1.38;;;18.60;99.90;;;;;;5093738;28;20221;-78
2022/09/02 04:53:45;;;;;;;1.35;1.30;;;18.60;99.90;;;;;;5095814;28;20198;-78
2022/09/02 04:56:15;;;;;;;1.50;1.40;;;18.60;99.90;;;;;;5102319;28;20221;-78
2022/09/02 04:58:43;;;;;;;1.33;1.27;;;18.60;99.90;;;;;;5089977;28;20722;-78
2022/09/02 05:01:12;;;;;;;1.50;1.40;;;18.70;99.90;;;;;;5078493;28;20222;-78
2022/09/02 05:03:41;;;;;;;1.50;1.40;;;18.70;99.90;;;;;;5086444;28;20691;-76
2022/09/02 05:06:13;;;;;;;2.05;1.40;;;18.80;99.90;;;;;;5085467;28;20214;-77
2022/09/02 05:08:41;;;;;;;1.23;1.23;;;18.80;99.90;;;;;;5082712;28;20566;-77
2022/09/02 05:11:09;;;;;;;1.38;1.27;;;18.80;99.90;;;;;;5084537;28;20224;-77
2022/09/02 05:13:36;;;;;;;1.92;1.10;;;18.90;99.90;;;;;;5094041;28;20206;-77
2022/09/02 05:16:03;;;;;;;1.48;1.38;;;18.90;99.90;;;;;;5081103;28;20231;-77
2022/09/02 05:18:30;;;;;;;1.20;1.20;;;18.90;99.90;;;;;;5096053;28;20662;-76
2022/09/02 05:20:58;;;;;;;1.23;1.13;;;18.90;99.90;;;;;;5092453;28;20224;-77
2022/09/02 05:23:26;;;;;;;3.40;1.20;;;18.90;99.90;;;;;;5087782;28;20594;-78
2022/09/02 05:25:53;;;;;;;1.30;1.20;;;18.90;99.90;;;;;;5093232;28;20225;-77
2022/09/02 05:28:20;;;;;;;1.42;1.33;;;19.00;99.90;;;;;;5089619;28;20196;-77
2022/09/02 05:30:47;;;;;;;1.48;1.02;;;19.00;99.90;;;;;;5089063;28;20703;-76
2022/09/02 05:33:14;;;;;;;1.20;1.10;;;19.00;99.90;;;;;;5095225;28;20663;-77
2022/09/02 05:35:42;;;;;;;1.40;1.30;;;19.00;99.90;;;;;;5106928;22;20229;-71
2022/09/02 05:38:10;;;;;;;1.20;1.20;;;19.00;99.90;;;;;;5061760;28;20202;-72
2022/09/02 05:40:38;;;;;;;1.02;1.00;;;19.00;99.90;;;;;;5068860;28;20222;-71
2022/09/02 05:43:06;;;;;;;1.20;1.20;;;19.00;99.90;;;;;;5068542;28;20198;-72
2022/09/02 05:45:34;;;;;;;1.15;1.10;;;19.00;99.90;;;;;;5064088;28;20210;-72
2022/09/02 05:49:05;;;;;;;1.30;1.20;;;19.10;99.90;;;;;;5063978;28;20218;-71
2022/09/02 05:50:49;;;;;;;2.03;1.60;;;19.00;99.90;;;;;;5061210;28;20226;-71
2022/09/02 05:53:16;;;;;;;1.50;1.40;;;19.00;99.90;;;;;;5066728;28;20201;-71
2022/09/02 05:55:44;;;;;;;1.50;1.40;;;19.00;99.90;;;;;;5067691;28;20237;-71
2022/09/02 05:58:12;;;;;;;2.47;1.60;;;19.10;99.90;;;;;;5068752;28;20198;-70
2022/09/02 06:00:39;;;;;;;1.70;1.60;;;19.10;99.90;;;;;;5059389;28;20229;-71
2022/09/02 06:03:06;;;;;;;1.95;1.67;;;19.20;99.90;;;;;;5061949;28;20205;-71
2022/09/02 06:05:34;;;;;;;4.15;2.00;;;19.20;99.90;;;;;;5059239;28;20249;-71
2022/09/02 06:08:01;;;;;;;2.55;2.00;;;19.20;99.90;;;;;;5057753;28;20190;-71
2022/09/02 06:10:28;;;;;;;2.60;2.00;;;19.20;99.90;;;;;;5061259;28;20225;-72
2022/09/02 06:12:58;;;;;;;3.65;1.80;;;19.20;99.90;;;;;;5061809;28;20194;-71
2022/09/02 06:15:29;;;;;;;2.17;2.00;;;19.20;99.90;;;;;;5063259;28;20218;-72
2022/09/02 06:17:58;;;;;;;2.65;2.05;;;19.20;99.90;;;;;;5063016;28;20655;-72
2022/09/02 06:20:27;;;;;;;2.00;1.80;;;19.50;99.90;;;;;;5064589;28;20275;-71
2022/09/02 06:22:55;;;;;;;2.22;1.90;;;20.00;99.90;;;;;;5059202;28;20195;-71
2022/09/02 06:25:22;;;;;;;2.15;1.80;;;20.60;99.90;;;;;;5059653;28;20629;-71
2022/09/02 06:27:49;;;;;;;2.03;1.77;;;20.90;99.90;;;;;;5057301;28;20289;-71
2022/09/02 06:30:17;;;;;;;2.15;1.67;;;21.10;99.90;;;;;;5063561;28;20779;-72
2022/09/02 06:32:45;;;;;;;1.40;1.30;;;21.40;99.90;;;;;;5062949;28;20703;-71
2022/09/02 06:35:15;;;;;;;2.22;1.92;;;21.50;99.90;;;;;;5064701;28;20222;-72
2022/09/02 06:37:42;;;;;;;1.70;1.60;;;21.40;99.90;;;;;;5062536;28;20580;-69
2022/09/02 06:40:10;;;;;;;2.17;1.88;;;21.20;99.90;;;;;;5064096;28;20217;-71
2022/09/02 06:42:37;;;;;;;2.00;1.55;;;21.00;99.90;;;;;;5063540;28;20696;-71
2022/09/02 06:45:05;;;;;;;2.88;1.85;;;20.80;99.90;;;;;;5065663;28;20754;-70
2022/09/02 06:47:34;;;;;;;3.22;1.90;;;20.60;99.90;;;;;;5060136;28;20715;-71
2022/09/02 06:50:02;;;;;;;1.48;1.38;;;20.60;99.90;;;;;;5063337;28;20291;-71
2022/09/02 06:52:29;;;;;;;1.80;1.70;;;20.60;99.90;;;;;;5064274;28;20688;-68
2022/09/02 06:54:56;;;;;;;1.88;1.73;;;20.60;99.90;;;;;;5065372;28;20218;-71
2022/09/02 06:57:23;;;;;;;2.00;1.80;;;20.60;99.90;;;;;;5063757;28;20222;-71
2022/09/02 06:59:50;;;;;;;2.75;2.03;;;20.60;99.90;;;;;;5067166;28;20214;-72
2022/09/02 07:02:18;;;;;;;2.72;1.77;;;20.40;99.90;;;;;;5066210;28;20202;-72
2022/09/02 07:07:31;;;;;;;2.05;1.95;;;20.40;99.90;;;;;;5064668;28;21044;-70
2022/09/02 07:09:59;;;;;;;5.32;2.25;;;20.60;99.90;;;;;;5067486;28;20898;-70
2022/09/02 07:12:26;;;;;;;2.38;2.17;;;20.60;99.90;;;;;;5064996;28;20195;-72
2022/09/02 07:14:54;;;;;;;3.50;2.08;;;20.50;99.90;;;;;;5065054;28;20229;-72
2022/09/02 07:17:22;;;;;;;3.88;2.13;;;20.50;99.90;;;;;;5060927;28;20287;-72
2022/09/02 07:19:51;;;;;;;1.88;1.67;;;20.40;99.90;;;;;;5060885;28;20229;-71
2022/09/02 07:22:19;;;;;;;3.75;2.22;;;20.30;99.90;;;;;;5060283;28;20301;-70
2022/09/02 07:24:46;;;;;;;3.88;2.30;;;20.40;99.90;;;;;;5059710;28;20226;-71
2022/09/02 07:27:13;;;;;;;2.92;2.17;;;20.40;99.90;;;;;;5057484;28;20233;-70
2022/09/02 07:29:42;;;;;;;2.65;2.00;;;20.40;99.90;;;;;;5062603;28;20303;-70
2022/09/02 07:32:10;;;;;;;1.83;1.73;;;20.40;99.90;;;;;;5064141;28;20244;-72
2022/09/02 07:34:37;;;;;;;2.63;1.88;;;20.50;99.90;;;;;;5061964;28;20888;-71
2022/09/02 07:37:06;;;;;;;3.33;1.80;;;20.60;99.90;;;;;;5061824;28;20230;-71
2022/09/02 07:39:33;;;;;;;2.60;2.03;;;20.60;99.90;;;;;;5063171;28;20279;-70
2022/09/02 07:42:00;;;;;;;2.00;1.80;;;20.70;99.90;;;;;;5064172;28;20202;-73
2022/09/02 07:44:28;;;;;;;1.70;1.60;;;20.80;99.90;;;;;;5062412;28;20220;-73
2022/09/02 07:46:55;;;;;;;5.20;1.80;;;20.80;99.90;;;;;;5062009;28;20731;-71
2022/09/02 07:49:22;;;;;;;1.73;1.63;;;20.90;99.90;;;;;;5060025;28;20195;-71
2022/09/02 07:51:51;;;;;;;2.10;1.90;;;21.20;99.90;;;;;;5063360;28;20199;-70
2022/09/02 07:54:22;;;;;;;5.57;2.40;;;21.70;99.90;;;;;;5063356;28;20945;-73
2022/09/02 07:56:49;;;;;;;2.20;1.80;;;22.20;99.90;;;;;;5060888;28;20732;-73
2022/09/02 07:59:16;;;;;;;2.05;1.85;;;22.30;99.90;;;;;;5065160;28;20190;-72
2022/09/02 08:01:44;;;;;;;2.05;1.75;;;22.60;99.90;;;;;;5063691;28;21013;-72
2022/09/02 08:04:12;;;;;;;2.10;1.90;;;22.90;99.90;;;;;;5065271;28;20190;-69
2022/09/02 08:06:40;;;;;;;2.40;1.70;;;23.50;99.90;;;;;;5065598;28;20313;-73
2022/09/02 08:09:10;;;;;;;1.90;1.70;;;23.70;99.90;;;;;;5066470;28;20209;-71
2022/09/02 08:11:39;;;;;;;2.08;1.70;;;23.70;99.90;;;;;;5065900;28;20222;-72
2022/09/02 08:14:08;;;;;;;2.55;2.00;;;24.00;99.90;;;;;;5077216;28;20707;-72
2022/09/02 08:16:35;;;;;;;3.00;1.98;;;24.30;99.90;;;;;;5072757;28;20225;-72
2022/09/02 08:19:02;;;;;;;6.20;2.60;;;24.60;99.90;;;;;;5074961;28;20263;-72
2022/09/02 08:21:29;;;;;;;2.63;1.85;;;24.70;99.90;;;;;;5076155;28;20763;-73
2022/09/02 08:23:57;;;;;;;2.45;1.88;;;24.40;99.90;;;;;;5078525;28;20259;-72
2022/09/02 08:26:25;;;;;;;2.90;1.50;;;24.00;99.90;;;;;;5076372;28;20218;-73
2022/09/02 08:28:53;;;;;;;2.38;1.83;;;23.50;99.90;;;;;;5078436;28;20209;-71
2022/09/02 08:31:20;;;;;;;1.60;1.50;;;23.20;99.90;;;;;;5072820;28;20214;-73
2022/09/02 08:33:48;;;;;;;2.38;2.17;;;22.90;99.90;;;;;;5074527;28;20206;-72
2022/09/02 08:36:15;;;;;;;1.75;1.65;;;23.00;99.90;;;;;;5073907;28;20229;-72
2022/09/02 08:38:43;;;;;;;1.75;1.52;;;23.10;99.90;;;;;;5072900;28;20237;-71
2022/09/02 08:41:20;;;;;;;2.03;1.83;;;23.30;99.90;;;;;;5071381;28;20290;-73
2022/09/02 08:43:49;;;;;;;6.45;2.40;;;23.40;99.90;;;;;;5074351;28;20198;-70
2022/09/02 08:46:24;;;;;;;4.57;2.70;;;23.50;99.90;;;;;;5061408;28;20218;-74
2022/09/02 08:48:55;;;;;;;2.85;2.03;;;23.50;99.90;;;;;;5064760;28;20202;-73
2022/09/02 08:51:29;;;;;;;2.28;1.73;;;23.40;99.90;;;;;;5060957;28;20214;-72
2022/09/02 08:54:02;;;;;;;9.57;3.42;;;23.50;99.90;;;;;;5060853;28;20725;-73
2022/09/02 08:56:31;;;;;;;5.03;2.42;;;23.70;99.90;;;;;;5061148;28;20222;-74
2022/09/02 08:59:02;;;;;;;1.60;1.50;;;23.70;99.90;;;;;;5062979;28;20199;-72
2022/09/02 09:01:41;;;;;;;6.43;2.00;;;23.60;99.90;;;;;;5059410;28;20218;-71
2022/09/02 09:04:17;;;;;;;10.10;3.72;;;23.70;99.90;;;;;;5066759;28;20237;-71
2022/09/02 09:06:59;;;;;;;3.60;2.40;;;24.40;99.90;;;;;;5058003;28;20250;-72
2022/09/02 09:09:36;;;;;;;1.80;1.70;;;24.60;99.90;;;;;;5056996;28;20510;-72
2022/09/02 09:12:12;;;;;;;5.82;3.05;;;24.60;99.90;;;;;;5059635;28;20259;-71
2022/09/02 09:14:48;;;;;;;3.00;2.20;;;24.70;99.90;;;;;;5062556;28;20225;-71
2022/09/02 09:17:26;;;;;;;2.40;1.95;;;24.50;99.90;;;;;;5058361;28;20312;-71
2022/09/02 09:19:57;;;;;;;1.65;1.55;;;24.50;99.90;;;;;;5062838;28;20275;-72
2022/09/02 09:22:30;;;;;;;4.43;1.48;;;24.30;99.90;;;;;;5059856;28;20672;-72
2022/09/02 09:24:57;;;;;;;2.13;1.50;;;24.00;99.90;;;;;;5062663;28;20772;-70
2022/09/02 09:27:26;;;;;;;2.22;1.63;;;23.80;99.90;;;;;;5061981;28;20394;-71
2022/09/02 09:29:53;;;;;;;2.03;1.60;;;23.50;99.90;;;;;;5060183;28;20218;-70
2022/09/02 09:32:28;;;;;;;4.00;2.05;;;23.40;99.90;;;;;;5059681;28;20273;-72
2022/09/02 09:35:00;;;;;;;2.28;1.88;;;23.50;99.90;;;;;;5063364;28;20232;-73
2022/09/02 09:37:34;;;;;;;2.90;1.60;;;23.50;99.90;;;;;;5057908;28;20254;-72
2022/09/02 09:40:01;;;;;;;7.15;3.42;;;23.70;99.90;;;;;;5057227;28;20229;-71
2022/09/02 09:42:32;;;;;;;22.13;8.07;;;23.70;99.90;;;;;;5062579;28;20704;-71
2022/09/02 09:45:00;;;;;;;21.13;7.30;;;23.80;99.90;;;;;;5061274;28;20221;-71
2022/09/02 09:47:28;;;;;;;7.40;3.90;;;23.70;99.90;;;;;;5060197;28;20214;-71
2022/09/02 09:50:12;;;;;;;4.93;2.80;;;23.60;99.90;;;;;;5058735;28;20223;-71
2022/09/02 09:52:40;;;;;;;2.85;1.95;;;23.50;99.90;;;;;;5062413;28;20206;-72
2022/09/02 09:55:14;;;;;;;2.25;1.55;;;23.30;99.90;;;;;;5060042;28;20225;-72
2022/09/02 09:57:43;;;;;;;6.68;2.63;;;23.30;99.90;;;;;;5061917;28;20319;-71
2022/09/02 10:00:30;;;;;;;22.83;7.85;;;23.30;99.90;;;;;;5061338;28;20214;-73
2022/09/02 10:03:01;;;;;;;10.63;4.63;;;23.50;99.90;;;;;;5060941;28;20285;-70
2022/09/02 10:05:33;;;;;;;7.57;2.92;;;23.70;99.90;;;;;;5061422;28;20309;-71
2022/09/02 10:08:02;;;;;;;3.50;2.10;;;24.10;99.90;;;;;;5062099;28;20190;-69
2022/09/02 10:10:31;;;;;;;2.38;1.83;;;24.40;99.90;;;;;;5058470;28;20241;-68
2022/09/02 10:13:16;;;;;;;2.05;1.95;;;24.70;99.90;;;;;;5060573;28;20202;-71
2022/09/02 10:15:52;;;;;;;2.70;1.83;;;24.80;99.90;;;;;;5056555;28;20221;-71
2022/09/02 10:18:30;;;;;;;1.60;1.50;;;24.90;99.90;;;;;;5058628;28;20240;-71
2022/09/02 10:21:03;;;;;;;2.17;1.85;;;24.90;99.90;;;;;;5061591;28;20245;-71
2022/09/02 10:23:44;;;;;;;2.10;1.90;;;24.90;99.90;;;;;;5057055;28;20203;-72
2022/09/02 10:26:24;;;;;;;1.58;1.48;;;24.90;99.90;;;;;;5059457;28;20245;-69
2022/09/02 10:29:40;;;;;;;1.27;1.27;;;25.00;99.90;;;;;;5057278;28;20289;-72
2022/09/02 10:32:23;;;;;;;3.03;1.50;;;24.80;99.90;;;;;;5002429;28;20635;-72
2022/09/02 10:35:04;;;;;;;1.40;1.30;;;24.80;99.90;;;;;;4996001;28;20220;-73
2022/09/02 10:37:40;;;;;;;1.67;1.58;;;25.10;99.90;;;;;;5034307;28;20283;-70
2022/09/02 10:40:12;;;;;;;1.52;1.42;;;25.10;99.90;;;;;;5058531;28;20240;-73
2022/09/02 10:42:50;;;;;;;2.70;1.77;;;25.20;99.90;;;;;;5062912;28;20195;-71
2022/09/02 10:45:33;;;;;;;1.42;1.33;;;25.00;99.90;;;;;;5059362;28;20708;-70
2022/09/02 10:48:20;;;;;;;1.80;1.70;;;24.80;99.90;;;;;;5060988;28;20230;-71
2022/09/02 10:50:53;;;;;;;3.80;1.50;;;24.70;99.90;;;;;;5054956;28;20213;-72
2022/09/02 10:53:47;;;;;;;1.67;1.38;;;24.80;99.90;;;;;;5062249;28;20605;-71
2022/09/02 10:56:20;;;;;;;1.60;1.50;;;25.00;99.90;;;;;;5059157;28;20225;-73
2022/09/02 10:58:56;;;;;;;1.92;1.83;;;25.00;99.90;;;;;;5058154;28;20267;-74
2022/09/02 11:01:28;;;;;;;1.48;1.38;;;25.10;99.90;;;;;;5062671;28;20230;-72
2022/09/02 11:04:03;;;;;;;1.40;1.30;;;25.20;99.90;;;;;;5061880;28;20266;-73
2022/09/02 11:06:38;;;;;;;1.48;1.30;;;25.00;99.90;;;;;;5057012;28;20593;-73
2022/09/02 11:09:12;;;;;;;2.30;1.63;;;25.10;99.90;;;;;;5056389;28;20206;-69
2022/09/02 11:11:46;;;;;;;1.60;1.50;;;25.20;99.90;;;;;;5056193;28;20229;-72
2022/09/02 11:14:20;;;;;;;2.05;1.65;;;24.90;99.90;;;;;;5059369;28;20206;-72
2022/09/02 11:16:51;;;;;;;2.15;1.95;;;24.80;99.90;;;;;;5060853;28;20214;-72
2022/09/02 11:19:25;;;;;;;1.75;1.65;;;25.00;99.90;;;;;;5057457;28;20205;-70
2022/09/02 11:22:01;;;;;;;1.70;1.60;;;25.10;99.90;;;;;;5061301;28;20198;-73
2022/09/02 11:24:35;;;;;;;1.83;1.42;;;25.20;99.90;;;;;;5058352;28;20242;-72
2022/09/02 11:27:11;;;;;;;1.70;1.60;;;25.30;99.90;;;;;;5059212;28;20225;-72
2022/09/02 11:29:48;;;;;;;1.80;1.70;;;25.20;99.90;;;;;;5061268;28;20226;-72
2022/09/02 11:32:22;;;;;;;3.58;1.55;;;25.40;99.90;;;;;;5061304;28;20197;-73
2022/09/02 11:34:54;;;;;;;2.03;1.65;;;25.50;99.90;;;;;;5059586;28;20627;-70
2022/09/02 11:37:30;;;;;;;1.70;1.60;;;25.20;99.90;;;;;;5163759;22;21460;-77
2022/09/02 11:40:02;;;;;;;1.52;1.42;;;25.50;99.90;;;;;;5099032;28;20984;-78
2022/09/02 11:42:44;;;;;;;2.72;1.55;;;25.80;99.90;;;;;;5093060;28;20636;-76
2022/09/02 11:45:33;;;;;;;3.58;1.65;;;25.90;99.90;;;;;;5105448;28;20223;-77
2022/09/02 11:48:42;;;;;;;1.88;1.42;;;25.90;99.90;;;;;;5093803;28;20222;-77
2022/09/02 11:51:43;;;;;;;2.13;1.70;;;25.70;99.90;;;;;;5095716;28;20228;-78
2022/09/02 11:54:14;;;;;;;1.60;1.50;;;25.60;99.90;;;;;;5098624;28;20193;-76
2022/09/02 11:56:46;;;;;;;1.60;1.50;;;25.60;99.90;;;;;;5098199;28;20217;-77
2022/09/02 11:59:21;;;;;;;1.35;1.25;;;25.50;99.90;;;;;;5092682;28;20312;-76
2022/09/02 12:01:51;;;;;;;2.15;1.40;;;25.50;99.90;;;;;;5089939;28;20201;-77
2022/09/02 12:04:24;;;;;;;1.85;1.30;;;25.70;99.90;;;;;;5089665;28;20583;-77
2022/09/02 12:07:26;;;;;;;1.50;1.40;;;25.70;99.90;;;;;;5093245;28;20280;-77
2022/09/02 12:09:55;;;;;;;1.30;1.20;;;25.90;99.90;;;;;;5099541;28;20226;-76
2022/09/02 12:13:00;;;;;;;3.83;1.48;;;26.10;99.90;;;;;;5112791;28;20201;-77
2022/09/02 12:15:34;;;;;;;1.40;1.30;;;26.10;99.90;;;;;;5092231;28;20286;-76
2022/09/02 12:18:14;;;;;;;1.70;1.42;;;26.10;99.90;;;;;;5110467;28;20229;-76
2022/09/02 12:21:10;;;;;;;3.55;1.50;;;26.10;99.90;;;;;;5094544;28;20253;-77
2022/09/02 12:24:05;;;;;;;2.30;1.30;;;26.00;99.90;;;;;;5107591;28;20205;-77
2022/09/02 12:27:28;;;;;;;2.58;1.42;;;26.00;99.90;;;;;;5116391;28;20232;-76
2022/09/02 12:29:57;;;;;;;1.40;1.27;;;26.00;99.90;;;;;;5098143;28;20221;-77
2022/09/02 12:33:11;;;;;;;1.23;1.20;;;26.00;99.90;;;;;;5101276;28;20582;-76
2022/09/02 14:43:19;;;;;;;1.75;1.23;;;25.70;99.90;;;;;;5069281;28;20205;-75
2022/09/02 14:45:50;;;;;;;1.50;1.40;;;25.60;99.90;;;;;;4998898;28;20204;-75
2022/09/02 14:52:18;;;;;;;1.42;1.33;;;25.20;99.90;;;;;;5013215;28;20294;-75
2022/09/02 15:04:34;;;;;;;1.63;1.35;;;25.20;99.90;;;;;;5070935;28;20205;-75
2022/09/02 15:07:37;;;;;;;1.30;1.15;;;25.20;99.90;;;;;;5067101;28;20225;-76
2022/09/02 15:10:18;;;;;;;2.60;1.42;;;25.00;99.90;;;;;;5069686;28;21580;-75
2022/09/02 15:12:49;;;;;;;1.40;1.30;;;25.20;99.90;;;;;;5085800;28;20667;-77
2022/09/02 15:15:18;;;;;;;1.70;1.25;;;25.10;99.90;;;;;;5091653;28;20616;-75
2022/09/02 15:17:45;;;;;;;1.40;1.30;;;25.00;99.90;;;;;;5095265;28;20241;-77
2022/09/02 15:20:13;;;;;;;1.73;1.45;;;24.80;99.90;;;;;;5109176;28;20221;-76
2022/09/02 15:22:40;;;;;;;2.55;1.48;;;24.80;99.90;;;;;;5100569;28;20258;-75
2022/09/02 15:25:08;;;;;;;1.85;1.75;;;24.90;99.90;;;;;;5107855;27;20231;-76
2022/09/02 15:27:36;;;;;;;1.85;1.52;;;24.90;99.90;;;;;;5107360;28;20236;-75
2022/09/02 15:30:04;;;;;;;2.28;1.70;;;24.70;99.90;;;;;;5115865;27;20224;-75
2022/09/02 15:32:34;;;;;;;1.92;1.35;;;24.50;99.90;;;;;;5116152;27;20575;-75
2022/09/02 15:35:01;;;;;;;5.95;1.20;;;24.30;99.90;;;;;;5113824;28;20303;-75
2022/09/02 15:37:28;;;;;;;1.65;1.55;;;24.20;99.90;;;;;;5111396;28;20212;-76
2022/09/02 15:39:55;;;;;;;1.40;1.30;;;24.10;99.90;;;;;;5112370;28;20220;-75
2022/09/02 15:42:23;;;;;;;1.33;1.23;;;24.10;99.90;;;;;;5114204;28;20220;-76
2022/09/02 15:44:50;;;;;;;1.35;1.20;;;24.10;99.90;;;;;;5112634;28;20216;-74
2022/09/02 15:47:17;;;;;;;1.58;1.20;;;24.00;99.90;;;;;;5109442;27;20213;-76